createdAt,value
2022-11-13T00:00:37.740Z,56.45
2022-11-13T00:03:04.165Z,53.13
2022-11-13T00:05:30.555Z,55.22
2022-11-13T00:07:56.948Z,60.35
2022-11-13T00:10:23.501Z,52.85
2022-11-13T00:12:49.939Z,54.15
2022-11-13T00:15:16.555Z,51.25
2022-11-13T00:17:43.045Z,53.55
2022-11-13T00:20:09.700Z,58.58
2022-11-13T00:22:36.198Z,54.20
2022-11-13T00:25:02.682Z,51.97
2022-11-13T00:27:32.376Z,54.63
2022-11-13T00:29:58.808Z,54.67
2022-11-13T00:32:26.551Z,54.78
2022-11-13T00:34:54.206Z,62.05
2022-11-13T00:37:21.366Z,57.28
2022-11-13T00:39:47.765Z,52.55
2022-11-13T00:42:14.202Z,56.20
2022-11-13T00:44:40.838Z,58.13
2022-11-13T00:47:07.243Z,55.97
2022-11-13T00:49:33.662Z,52.75
2022-11-13T00:52:00.244Z,53.17
2022-11-13T00:54:26.732Z,58.70
2022-11-13T00:56:53.227Z,73.95
2022-11-13T00:59:19.858Z,61.03
2022-11-13T01:01:46.320Z,58.88
2022-11-13T01:04:12.836Z,55.40
2022-11-13T01:06:39.415Z,54.92
2022-11-13T01:09:06.384Z,57.67
2022-11-13T01:11:32.855Z,56.50
2022-11-13T01:13:59.353Z,53.38
2022-11-13T01:16:29.428Z,55.53
2022-11-13T01:18:56.756Z,57.50
2022-11-13T01:21:26.551Z,56.08
2022-11-13T01:23:54.742Z,56.25
2022-11-13T01:26:22.670Z,53.35
2022-11-13T01:28:49.922Z,51.85
2022-11-13T01:31:19.168Z,53.75
2022-11-13T01:33:46.521Z,56.78
2022-11-13T01:36:16.431Z,52.53
2022-11-13T01:38:42.944Z,55.20
2022-11-13T01:41:23.069Z,53.15
2022-11-13T01:43:50.891Z,54.20
2022-11-13T01:46:19.061Z,55.38
2022-11-13T01:48:50.131Z,55.50
2022-11-13T01:51:27.893Z,53.60
2022-11-13T01:53:57.507Z,54.28
2022-11-13T01:56:24.041Z,53.25
2022-11-13T01:58:59.183Z,53.70
2022-11-13T02:01:26.066Z,53.00
2022-11-13T02:03:52.573Z,52.28
2022-11-13T02:06:20.172Z,53.15
2022-11-13T02:08:47.230Z,56.70
2022-11-13T02:11:13.832Z,50.95
2022-11-13T02:13:40.260Z,53.50
2022-11-13T02:16:09.434Z,51.25
2022-11-13T02:18:38.096Z,52.70
2022-11-13T02:21:16.683Z,52.45
2022-11-13T02:23:46.451Z,55.00
2022-11-13T02:26:13.447Z,53.63
2022-11-13T02:28:39.893Z,55.60
2022-11-13T02:31:11.254Z,50.88
2022-11-13T02:33:38.140Z,54.03
2022-11-13T02:36:06.032Z,55.40
2022-11-13T02:38:34.977Z,59.35
2022-11-13T02:41:01.854Z,54.42
2022-11-13T02:43:28.311Z,56.10
2022-11-13T02:45:55.086Z,54.83
2022-11-13T02:48:21.547Z,53.45
2022-11-13T02:50:47.965Z,54.45
2022-11-13T02:53:14.421Z,52.30
2022-11-13T02:55:40.939Z,61.83
2022-11-13T02:58:07.405Z,56.95
2022-11-13T03:00:33.920Z,52.42
2022-11-13T03:03:00.452Z,55.45
2022-11-13T03:05:26.893Z,52.22
2022-11-13T03:07:53.312Z,56.03
2022-11-13T03:10:19.870Z,51.92
2022-11-13T03:12:46.367Z,55.60
2022-11-13T03:15:12.785Z,55.13
2022-11-13T03:17:39.237Z,54.85
2022-11-13T03:20:06.221Z,54.55
2022-11-13T03:22:32.635Z,58.13
2022-11-13T03:24:59.074Z,56.38
2022-11-13T03:27:25.785Z,63.92
2022-11-13T03:29:52.331Z,60.42
2022-11-13T03:32:18.939Z,59.50
2022-11-13T03:34:45.350Z,66.45
2022-11-13T03:37:11.918Z,63.17
2022-11-13T03:39:38.364Z,61.80
2022-11-13T03:42:04.859Z,58.53
2022-11-13T03:44:31.282Z,63.35
2022-11-13T03:46:57.893Z,62.45
2022-11-13T03:49:24.346Z,61.85
2022-11-13T03:51:51.024Z,60.00
2022-11-13T03:54:17.560Z,71.32
2022-11-13T03:56:43.975Z,58.75
2022-11-13T03:59:10.534Z,62.92
2022-11-13T04:01:36.991Z,60.08
2022-11-13T04:04:03.531Z,64.93
2022-11-13T04:06:29.977Z,59.17
2022-11-13T04:08:57.458Z,60.33
2022-11-13T04:11:23.897Z,62.58
2022-11-13T04:13:50.288Z,61.78
2022-11-13T04:16:16.732Z,62.45
2022-11-13T04:18:43.144Z,66.57
2022-11-13T04:21:09.762Z,68.00
2022-11-13T04:23:36.192Z,66.05
2022-11-13T04:26:02.649Z,61.08
2022-11-13T04:28:29.337Z,67.43
2022-11-13T04:30:56.644Z,64.75
2022-11-13T04:33:23.117Z,62.90
2022-11-13T04:35:49.818Z,70.57
2022-11-13T04:38:16.330Z,60.28
2022-11-13T04:40:42.816Z,60.78
2022-11-13T04:43:09.366Z,62.72
2022-11-13T04:45:36.955Z,60.92
2022-11-13T04:48:03.983Z,61.28
2022-11-13T04:50:30.533Z,63.22
2022-11-13T04:52:56.908Z,63.90
2022-11-13T04:55:23.323Z,60.70
2022-11-13T04:57:51.423Z,59.95
2022-11-13T05:00:18.247Z,63.92
2022-11-13T05:02:44.710Z,61.25
2022-11-13T05:05:11.141Z,64.30
2022-11-13T05:07:37.808Z,64.85
2022-11-13T05:10:04.831Z,66.47
2022-11-13T05:12:31.245Z,64.70
2022-11-13T05:14:57.647Z,63.60
2022-11-13T05:17:24.122Z,62.15
2022-11-13T05:19:51.066Z,59.72
2022-11-13T05:22:17.522Z,63.85
2022-11-13T05:24:43.946Z,61.47
2022-11-13T05:27:15.813Z,64.05
2022-11-13T05:29:43.714Z,60.35
2022-11-13T05:32:10.218Z,61.35
2022-11-13T05:34:36.670Z,62.95
2022-11-13T05:37:03.133Z,59.92
2022-11-13T05:39:29.513Z,59.55
2022-11-13T05:41:56.052Z,65.25
2022-11-13T05:44:22.471Z,73.72
2022-11-13T05:46:48.878Z,63.53
2022-11-13T05:49:15.523Z,67.03
2022-11-13T05:51:41.959Z,59.20
2022-11-13T05:54:08.712Z,64.80
2022-11-13T05:56:36.377Z,66.05
2022-11-13T05:59:05.046Z,67.70
2022-11-13T06:01:37.635Z,64.85
2022-11-13T06:04:05.922Z,64.07
2022-11-13T06:06:32.708Z,66.55
2022-11-13T06:09:01.591Z,63.50
2022-11-13T06:11:30.085Z,65.35
2022-11-13T06:13:57.945Z,67.65
2022-11-13T06:16:30.254Z,67.93
2022-11-13T06:18:59.004Z,70.03
2022-11-13T06:21:28.631Z,78.03
2022-11-13T06:23:56.305Z,73.57
2022-11-13T06:26:26.119Z,68.40
2022-11-13T06:28:53.289Z,69.80
2022-11-13T06:31:25.010Z,74.25
2022-11-13T06:33:51.995Z,71.95
2022-11-13T06:36:21.562Z,74.05
2022-11-13T06:38:49.008Z,66.65
2022-11-13T06:41:18.024Z,70.32
2022-11-13T06:43:45.059Z,72.82
2022-11-13T06:46:20.199Z,75.45
2022-11-13T06:48:47.451Z,78.80
2022-11-13T06:51:19.958Z,75.60
2022-11-13T06:53:47.410Z,76.47
2022-11-13T06:56:15.065Z,73.35
2022-11-13T06:58:41.888Z,73.13
2022-11-13T07:01:22.550Z,72.65
2022-11-13T07:03:49.171Z,71.82
2022-11-13T07:06:21.237Z,79.45
2022-11-13T07:08:48.403Z,78.68
2022-11-13T07:11:20.797Z,71.60
2022-11-13T07:13:47.864Z,72.00
2022-11-13T07:16:17.720Z,67.53
2022-11-13T07:18:49.479Z,72.70
2022-11-13T07:21:15.995Z,70.70
2022-11-13T07:23:43.393Z,77.10
2022-11-13T07:26:13.141Z,76.63
2022-11-13T07:28:39.823Z,78.15
2022-11-13T07:31:07.299Z,76.97
2022-11-13T07:33:33.945Z,74.03
2022-11-13T07:36:00.537Z,72.32
2022-11-13T07:38:27.271Z,72.40
2022-11-13T07:40:54.416Z,75.45
2022-11-13T07:43:21.081Z,75.38
2022-11-13T07:45:47.602Z,76.38
2022-11-13T07:48:14.134Z,72.75
2022-11-13T07:50:40.767Z,78.95
2022-11-13T07:53:08.688Z,78.25
2022-11-13T07:55:36.004Z,73.28
2022-11-13T07:58:03.277Z,90.43
2022-11-13T08:00:31.335Z,86.13
2022-11-13T08:02:57.873Z,84.38
2022-11-13T08:05:24.430Z,84.90
2022-11-13T08:07:52.287Z,79.95
2022-11-13T08:10:20.151Z,85.75
2022-11-13T08:12:47.173Z,80.20
2022-11-13T08:15:14.497Z,79.88
2022-11-13T08:17:41.060Z,84.40
2022-11-13T08:20:08.987Z,81.53
2022-11-13T08:22:35.680Z,78.20
2022-11-13T08:25:02.215Z,90.65
2022-11-13T08:27:28.710Z,96.65
2022-11-13T08:29:55.256Z,95.75
2022-11-13T08:32:22.519Z,91.93
2022-11-13T08:34:49.254Z,98.45
2022-11-13T08:37:16.028Z,89.32
2022-11-13T08:39:42.570Z,96.68
2022-11-13T08:42:09.057Z,98.25
2022-11-13T08:44:35.673Z,93.10
2022-11-13T08:47:02.135Z,92.22
2022-11-13T08:49:28.576Z,96.15
2022-11-13T08:51:55.000Z,93.93
2022-11-13T08:54:21.429Z,95.88
2022-11-13T08:56:53.017Z,106.63
2022-11-13T08:59:23.658Z,100.28
2022-11-13T09:01:50.934Z,108.70
2022-11-13T09:04:17.363Z,101.00
2022-11-13T09:06:43.894Z,107.32
2022-11-13T09:09:10.433Z,103.32
2022-11-13T09:11:36.884Z,100.30
2022-11-13T09:14:03.328Z,104.60
2022-11-13T09:16:29.786Z,107.30
2022-11-13T09:18:56.231Z,116.18
2022-11-13T09:21:22.662Z,96.80
2022-11-13T09:23:49.244Z,104.57
2022-11-13T09:26:15.780Z,91.30
2022-11-13T09:28:42.357Z,106.53
2022-11-13T09:31:08.918Z,102.88
2022-11-13T09:33:36.061Z,108.00
2022-11-13T09:36:02.973Z,101.75
2022-11-13T09:38:32.172Z,94.82
2022-11-13T09:41:08.328Z,103.23
2022-11-13T09:43:56.706Z,94.70
2022-11-13T09:46:44.901Z,98.45
2022-11-13T09:49:11.335Z,106.38
2022-11-13T09:51:39.302Z,94.45
2022-11-13T09:54:15.465Z,93.05
2022-11-13T09:57:09.768Z,107.65
2022-11-13T10:00:13.740Z,94.32
2022-11-13T10:03:15.696Z,91.53
2022-11-13T10:05:59.196Z,93.20
2022-11-13T10:09:01.427Z,86.63
2022-11-13T10:11:41.863Z,91.75
2022-11-13T10:14:16.833Z,84.47
2022-11-13T10:16:54.731Z,90.50
2022-11-13T10:19:31.186Z,83.10
2022-11-13T10:22:36.299Z,85.50
2022-11-13T10:25:16.569Z,77.15
2022-11-13T10:30:16.110Z,72.63
2022-11-13T10:32:43.516Z,69.45
2022-11-13T10:35:38.945Z,64.75
2022-11-13T10:38:11.291Z,67.55
2022-11-13T10:40:40.289Z,73.45
2022-11-13T10:43:15.333Z,73.05
2022-11-13T10:45:53.372Z,64.30
2022-11-13T10:48:29.594Z,66.97
2022-11-13T10:51:00.787Z,74.93
2022-11-13T10:53:38.111Z,71.43
2022-11-13T10:56:25.092Z,65.40
2022-11-13T10:59:25.343Z,64.50
2022-11-13T11:01:51.897Z,62.25
2022-11-13T11:04:24.136Z,59.90
2022-11-13T11:07:19.526Z,56.13
2022-11-13T11:09:39.050Z,53.78
2022-11-13T11:12:18.974Z,56.15
2022-11-13T11:14:59.661Z,59.50
2022-11-13T11:17:31.461Z,54.38
2022-11-13T11:20:21.779Z,58.95
2022-11-13T11:25:31.849Z,55.88
2022-11-13T11:28:27.282Z,54.47
2022-11-13T11:31:02.207Z,56.88
2022-11-13T11:33:52.466Z,58.33
2022-11-13T11:39:00.513Z,47.50
2022-11-13T11:41:36.418Z,49.83
2022-11-13T11:44:13.878Z,53.78
2022-11-13T11:46:45.505Z,54.38
2022-11-13T11:49:13.212Z,48.83
2022-11-13T11:51:57.756Z,57.35
2022-11-13T11:54:40.958Z,56.88
2022-11-13T11:57:31.793Z,50.00
2022-11-13T12:00:05.063Z,54.97
2022-11-13T12:03:06.075Z,48.13
2022-11-13T12:05:54.548Z,56.60
2022-11-13T12:08:20.967Z,51.53
2022-11-13T12:10:58.420Z,52.72
2022-11-13T12:13:43.673Z,48.63
2022-11-13T12:16:25.709Z,44.90
2022-11-13T12:18:58.661Z,50.10
2022-11-13T12:21:50.386Z,41.92
2022-11-13T12:24:25.476Z,44.55
2022-11-13T12:27:00.900Z,42.42
2022-11-13T12:29:45.678Z,38.88
2022-11-13T12:32:28.695Z,39.58
2022-11-13T12:35:03.082Z,43.08
2022-11-13T12:37:35.828Z,37.85
2022-11-13T12:40:12.251Z,40.03
2022-11-13T12:42:50.969Z,34.80
2022-11-13T12:45:31.905Z,33.80
2022-11-13T12:48:28.387Z,36.22
2022-11-13T12:51:00.814Z,34.63
2022-11-13T12:53:30.497Z,35.80
2022-11-13T12:56:00.600Z,31.85
2022-11-13T12:58:32.670Z,37.58
2022-11-13T13:01:13.417Z,40.55
2022-11-13T13:04:04.199Z,35.05
2022-11-13T13:06:54.626Z,29.58
2022-11-13T13:09:36.275Z,33.08
2022-11-13T13:12:27.728Z,33.28
2022-11-13T13:14:57.125Z,38.30
2022-11-13T13:17:24.129Z,35.57
2022-11-13T13:20:04.075Z,31.63
2022-11-13T13:22:36.009Z,31.48
2022-11-13T13:25:10.600Z,28.70
2022-11-13T13:27:39.779Z,27.92
2022-11-13T13:30:20.125Z,27.80
2022-11-13T13:32:58.856Z,25.75
2022-11-13T13:35:37.161Z,25.80
2022-11-13T13:38:35.564Z,30.00
2022-11-13T13:41:10.394Z,31.15
2022-11-13T13:43:57.069Z,28.75
2022-11-13T13:46:28.114Z,29.80
2022-11-13T13:49:01.701Z,27.73
2022-11-13T13:51:30.980Z,35.65
2022-11-13T13:54:00.294Z,29.25
2022-11-13T13:56:26.992Z,29.53
2022-11-13T13:58:54.535Z,34.08
2022-11-13T14:01:32.501Z,29.30
2022-11-13T14:04:20.524Z,28.33
2022-11-13T14:06:55.865Z,29.38
2022-11-13T14:09:24.693Z,28.95
2022-11-13T14:12:06.225Z,27.83
2022-11-13T14:14:39.181Z,29.08
2022-11-13T14:17:06.876Z,32.55
2022-11-13T14:19:33.289Z,27.67
2022-11-13T14:22:02.587Z,33.30
2022-11-13T14:24:50.248Z,29.10
2022-11-13T14:27:24.471Z,26.45
2022-11-13T14:29:58.600Z,28.67
2022-11-13T14:32:29.319Z,30.23
2022-11-13T14:35:02.419Z,28.70
2022-11-13T14:37:36.569Z,34.53
2022-11-13T14:40:22.706Z,30.30
2022-11-13T14:42:57.973Z,33.40
2022-11-13T14:45:30.054Z,31.65
2022-11-13T14:48:18.466Z,33.85
2022-11-13T14:50:57.552Z,37.38
2022-11-13T14:53:36.284Z,37.55
2022-11-13T14:56:12.316Z,32.33
2022-11-13T14:58:47.126Z,37.83
2022-11-13T15:01:24.834Z,40.97
2022-11-13T15:03:52.437Z,36.50
2022-11-13T15:06:20.208Z,40.22
2022-11-13T15:08:47.862Z,41.95
2022-11-13T15:11:19.361Z,39.60
2022-11-13T15:13:46.287Z,45.25
2022-11-13T15:16:19.275Z,46.72
2022-11-13T15:19:16.712Z,42.22
2022-11-13T15:21:51.128Z,47.95
2022-11-13T15:24:30.644Z,48.05
2022-11-13T15:26:57.050Z,52.40
2022-11-13T15:29:23.441Z,46.70
2022-11-13T15:31:50.106Z,49.25
2022-11-13T15:34:16.666Z,57.88
2022-11-13T15:36:43.489Z,55.17
2022-11-13T15:39:20.955Z,51.47
2022-11-13T15:41:49.923Z,54.20
2022-11-13T15:44:16.512Z,50.95
2022-11-13T15:46:43.029Z,42.33
2022-11-13T15:49:09.547Z,36.25
2022-11-13T15:51:48.254Z,34.55
2022-11-13T15:54:29.567Z,33.58
2022-11-13T15:56:56.134Z,30.13
2022-11-13T15:59:22.605Z,36.03
2022-11-13T16:01:51.799Z,32.55
2022-11-13T16:04:22.324Z,33.15
2022-11-13T16:06:48.870Z,23.77
2022-11-13T16:09:15.742Z,22.77
2022-11-13T16:11:42.648Z,21.38
2022-11-13T16:14:09.283Z,23.30
2022-11-13T16:16:38.746Z,22.23
2022-11-13T16:19:12.720Z,20.17
2022-11-13T16:21:39.466Z,20.58
2022-11-13T16:24:06.296Z,19.58
2022-11-13T16:26:32.894Z,17.73
2022-11-13T16:29:13.283Z,19.63
2022-11-13T16:31:40.441Z,18.73
2022-11-13T16:34:06.908Z,18.20
2022-11-13T16:36:33.357Z,18.98
2022-11-13T16:38:59.843Z,18.67
2022-11-13T16:41:26.630Z,20.80
2022-11-13T16:43:53.058Z,17.00
2022-11-13T16:46:26.061Z,17.42
2022-11-13T16:48:53.359Z,17.92
2022-11-13T16:51:20.013Z,17.23
2022-11-13T16:53:46.439Z,17.73
2022-11-13T16:56:15.614Z,17.23
2022-11-13T16:58:42.669Z,16.98
2022-11-13T17:01:15.519Z,16.75
2022-11-13T17:03:42.919Z,18.48
2022-11-13T17:06:30.245Z,16.35
2022-11-13T17:08:59.152Z,16.38
2022-11-13T17:11:28.122Z,18.02
2022-11-13T17:14:03.827Z,16.30
2022-11-13T17:16:31.424Z,16.77
2022-11-13T17:18:59.353Z,16.33
2022-11-13T17:21:27.930Z,16.38
2022-11-13T17:23:59.392Z,19.77
2022-11-13T17:26:26.563Z,17.02
2022-11-13T17:28:53.540Z,16.70
2022-11-13T17:31:20.704Z,16.38
2022-11-13T17:33:47.687Z,17.38
2022-11-13T17:36:14.211Z,17.95
2022-11-13T17:38:40.900Z,17.92
2022-11-13T17:41:12.599Z,15.48
2022-11-13T17:43:40.652Z,16.58
2022-11-13T17:46:10.267Z,16.15
2022-11-13T17:48:37.312Z,17.30
2022-11-13T17:51:06.791Z,16.42
2022-11-13T17:53:33.802Z,15.90
2022-11-13T17:56:02.586Z,18.38
2022-11-13T17:58:29.675Z,16.20
2022-11-13T18:01:12.760Z,16.55
2022-11-13T18:03:39.381Z,15.48
2022-11-13T18:06:08.064Z,16.65
2022-11-13T18:08:35.021Z,18.48
2022-11-13T18:11:16.039Z,16.45
2022-11-13T18:13:43.832Z,20.50
2022-11-13T18:16:18.943Z,16.23
2022-11-13T18:18:55.417Z,16.08
2022-11-13T18:21:30.542Z,16.80
2022-11-13T18:24:06.167Z,17.20
2022-11-13T18:26:33.653Z,16.15
2022-11-13T18:29:01.194Z,18.10
2022-11-13T18:31:28.462Z,16.30
2022-11-13T18:33:56.175Z,15.48
2022-11-13T18:36:22.623Z,17.02
2022-11-13T18:38:49.156Z,15.48
2022-11-13T18:41:17.801Z,17.83
2022-11-13T18:43:46.180Z,15.25
2022-11-13T18:46:14.475Z,22.80
2022-11-13T18:48:43.253Z,15.93
2022-11-13T18:51:15.959Z,18.98
2022-11-13T18:53:48.201Z,17.85
2022-11-13T18:56:17.911Z,19.63
2022-11-13T18:58:47.546Z,17.48
2022-11-13T19:01:24.716Z,16.15
2022-11-13T19:04:16.603Z,18.15
2022-11-13T19:06:39.674Z,20.02
2022-11-13T19:09:11.474Z,17.58
2022-11-13T19:11:37.892Z,17.67
2022-11-13T19:14:05.748Z,16.85
2022-11-13T19:16:35.613Z,19.65
2022-11-13T19:19:06.912Z,18.83
2022-11-13T19:21:38.948Z,17.52
2022-11-13T19:24:06.056Z,20.40
2022-11-13T19:26:32.806Z,22.83
2022-11-13T19:28:59.205Z,22.88
2022-11-13T19:31:27.609Z,22.75
2022-11-13T19:34:01.896Z,23.55
2022-11-13T19:36:30.823Z,23.20
2022-11-13T19:38:57.918Z,22.90
2022-11-13T19:41:25.791Z,25.70
2022-11-13T19:43:52.343Z,25.35
2022-11-13T19:46:20.153Z,28.90
2022-11-13T19:48:48.194Z,27.58
2022-11-13T19:51:20.421Z,25.23
2022-11-13T19:53:47.303Z,30.30
2022-11-13T19:56:16.027Z,27.02
2022-11-13T19:58:44.257Z,28.77
2022-11-13T20:01:12.674Z,28.85
2022-11-13T20:03:39.323Z,28.95
2022-11-13T20:06:06.823Z,29.13
2022-11-13T20:08:35.255Z,36.28
2022-11-13T20:11:07.081Z,28.75
2022-11-13T20:13:36.380Z,29.58
2022-11-13T20:16:04.962Z,30.53
2022-11-13T20:18:31.883Z,36.42
2022-11-13T20:20:59.070Z,37.35
2022-11-13T20:23:26.530Z,39.72
2022-11-13T20:26:00.880Z,36.28
2022-11-13T20:28:29.206Z,39.78
2022-11-13T20:31:17.623Z,45.33
2022-11-13T20:33:44.115Z,41.08
2022-11-13T20:36:10.654Z,42.95
2022-11-13T20:38:37.444Z,42.55
2022-11-13T20:41:05.445Z,41.85
2022-11-13T20:43:31.957Z,41.22
2022-11-13T20:46:10.451Z,45.85
2022-11-13T20:48:37.609Z,41.30
2022-11-13T20:51:11.829Z,48.60
2022-11-13T20:53:38.342Z,44.90
2022-11-13T20:56:05.484Z,47.70
2022-11-13T20:58:32.276Z,44.63
2022-11-13T21:01:02.663Z,48.05
2022-11-13T21:05:55.353Z,40.65
2022-11-13T21:08:22.115Z,43.50
2022-11-13T21:10:48.532Z,53.03
2022-11-13T21:13:16.189Z,48.95
2022-11-13T21:15:42.715Z,46.38
2022-11-13T21:18:09.343Z,45.95
2022-11-13T21:20:36.809Z,44.28
2022-11-13T21:23:03.861Z,46.63
2022-11-13T21:25:30.706Z,47.35
2022-11-13T21:27:57.166Z,44.30
2022-11-13T21:30:23.943Z,44.83
2022-11-13T21:32:50.648Z,49.38
2022-11-13T21:35:22.319Z,49.00
2022-11-13T21:37:49.225Z,46.83
2022-11-13T21:40:15.789Z,46.30
2022-11-13T21:42:42.568Z,54.70
2022-11-13T21:45:09.645Z,51.47
2022-11-13T21:47:39.117Z,51.78
2022-11-13T21:50:06.100Z,49.08
2022-11-13T21:52:32.858Z,46.97
2022-11-13T21:54:59.315Z,45.70
2022-11-13T21:57:27.038Z,54.45
2022-11-13T21:59:53.523Z,51.05
2022-11-13T22:02:20.195Z,48.58
2022-11-13T22:04:46.623Z,45.58
2022-11-13T22:07:14.113Z,44.67
2022-11-13T22:09:40.692Z,49.25
2022-11-13T22:12:07.169Z,49.83
2022-11-13T22:14:33.560Z,50.28
2022-11-13T22:17:00.040Z,47.13
2022-11-13T22:19:29.205Z,48.55
2022-11-13T22:21:57.635Z,51.97
2022-11-13T22:24:24.111Z,49.33
2022-11-13T22:26:50.774Z,55.17
2022-11-13T22:29:17.249Z,53.13
2022-11-13T22:31:44.868Z,52.92
2022-11-13T22:34:11.580Z,56.40
2022-11-13T22:36:38.048Z,51.92
2022-11-13T22:39:05.049Z,52.40
2022-11-13T22:41:33.376Z,55.53
2022-11-13T22:44:08.107Z,52.90
2022-11-13T22:46:36.177Z,51.25
2022-11-13T22:49:05.083Z,53.42
2022-11-13T22:51:35.045Z,54.83
2022-11-13T22:54:03.618Z,54.65
2022-11-13T22:56:31.873Z,49.97
2022-11-13T22:59:00.738Z,49.70
2022-11-13T23:01:29.525Z,52.00
2022-11-13T23:03:57.868Z,53.33
2022-11-13T23:06:26.950Z,55.38
2022-11-13T23:08:54.202Z,49.75
2022-11-13T23:11:27.055Z,50.42
2022-11-13T23:13:56.543Z,51.80
2022-11-13T23:16:24.483Z,53.28
2022-11-13T23:18:53.430Z,55.22
2022-11-13T23:21:21.059Z,52.75
2022-11-13T23:23:47.871Z,55.72
2022-11-13T23:26:15.804Z,53.85
2022-11-13T23:28:42.436Z,56.33
2022-11-13T23:31:09.395Z,55.10
2022-11-13T23:33:39.201Z,55.25
2022-11-13T23:36:10.364Z,59.58
2022-11-13T23:38:36.824Z,57.35
2022-11-13T23:41:03.670Z,56.25
2022-11-13T23:43:54.371Z,58.25
2022-11-13T23:46:17.508Z,63.22
2022-11-13T23:48:44.024Z,51.20
2022-11-13T23:51:10.474Z,52.60
2022-11-13T23:53:37.029Z,55.33
2022-11-13T23:56:03.854Z,60.25
2022-11-13T23:58:32.349Z,59.33
